sensor_id;sensor_type;location;lat;lon;timestamp;P1;durP1;ratioP1;P2;durP2;ratioP2
21095;SDS011;10706;49.036;12.112;2024-01-30T00:02:06;22.03;;;10.87;;
21095;SDS011;10706;49.036;12.112;2024-01-30T00:04:32;23.47;;;10.23;;
21095;SDS011;10706;49.036;12.112;2024-01-30T00:06:58;24.77;;;10.60;;
21095;SDS011;10706;49.036;12.112;2024-01-30T00:09:23;28.53;;;10.47;;
21095;SDS011;10706;49.036;12.112;2024-01-30T00:11:49;27.87;;;10.60;;
21095;SDS011;10706;49.036;12.112;2024-01-30T00:14:15;23.70;;;10.50;;
21095;SDS011;10706;49.036;12.112;2024-01-30T00:16:40;27.07;;;11.80;;
21095;SDS011;10706;49.036;12.112;2024-01-30T00:19:06;21.53;;;9.50;;
21095;SDS011;10706;49.036;12.112;2024-01-30T00:21:33;25.30;;;11.03;;
21095;SDS011;10706;49.036;12.112;2024-01-30T00:23:59;27.90;;;12.23;;
21095;SDS011;10706;49.036;12.112;2024-01-30T00:26:25;25.40;;;10.83;;
21095;SDS011;10706;49.036;12.112;2024-01-30T00:28:50;31.17;;;11.37;;
21095;SDS011;10706;49.036;12.112;2024-01-30T00:31:16;29.13;;;11.53;;
21095;SDS011;10706;49.036;12.112;2024-01-30T00:33:42;28.33;;;11.60;;
21095;SDS011;10706;49.036;12.112;2024-01-30T00:36:08;29.53;;;11.10;;
21095;SDS011;10706;49.036;12.112;2024-01-30T00:38:35;31.23;;;11.27;;
21095;SDS011;10706;49.036;12.112;2024-01-30T00:41:01;24.63;;;10.70;;
21095;SDS011;10706;49.036;12.112;2024-01-30T00:43:27;26.53;;;11.57;;
21095;SDS011;10706;49.036;12.112;2024-01-30T00:45:53;26.47;;;11.67;;
21095;SDS011;10706;49.036;12.112;2024-01-30T00:48:19;30.33;;;11.33;;
21095;SDS011;10706;49.036;12.112;2024-01-30T00:50:45;25.63;;;11.90;;
21095;SDS011;10706;49.036;12.112;2024-01-30T00:53:11;22.40;;;10.50;;
21095;SDS011;10706;49.036;12.112;2024-01-30T00:55:37;26.67;;;11.77;;
21095;SDS011;10706;49.036;12.112;2024-01-30T00:58:03;30.13;;;11.80;;
21095;SDS011;10706;49.036;12.112;2024-01-30T01:00:29;28.23;;;11.17;;
21095;SDS011;10706;49.036;12.112;2024-01-30T01:02:56;25.43;;;12.33;;
21095;SDS011;10706;49.036;12.112;2024-01-30T01:05:21;27.23;;;11.97;;
21095;SDS011;10706;49.036;12.112;2024-01-30T01:07:47;30.17;;;11.87;;
21095;SDS011;10706;49.036;12.112;2024-01-30T01:10:13;27.23;;;11.07;;
21095;SDS011;10706;49.036;12.112;2024-01-30T01:12:41;26.33;;;10.77;;
21095;SDS011;10706;49.036;12.112;2024-01-30T01:15:07;29.23;;;12.47;;
21095;SDS011;10706;49.036;12.112;2024-01-30T01:17:36;31.93;;;10.57;;
21095;SDS011;10706;49.036;12.112;2024-01-30T01:20:04;27.17;;;11.13;;
21095;SDS011;10706;49.036;12.112;2024-01-30T01:22:31;30.57;;;13.07;;
21095;SDS011;10706;49.036;12.112;2024-01-30T01:24:58;24.73;;;11.23;;
21095;SDS011;10706;49.036;12.112;2024-01-30T01:27:24;26.07;;;11.87;;
21095;SDS011;10706;49.036;12.112;2024-01-30T01:29:50;28.33;;;11.90;;
21095;SDS011;10706;49.036;12.112;2024-01-30T01:32:17;32.57;;;12.57;;
21095;SDS011;10706;49.036;12.112;2024-01-30T01:34:43;30.97;;;12.27;;
21095;SDS011;10706;49.036;12.112;2024-01-30T01:37:09;31.80;;;12.77;;
21095;SDS011;10706;49.036;12.112;2024-01-30T01:39:34;33.73;;;12.97;;
21095;SDS011;10706;49.036;12.112;2024-01-30T01:42:00;31.03;;;12.93;;
21095;SDS011;10706;49.036;12.112;2024-01-30T01:44:26;27.37;;;12.67;;
21095;SDS011;10706;49.036;12.112;2024-01-30T01:46:53;28.83;;;13.07;;
21095;SDS011;10706;49.036;12.112;2024-01-30T01:49:19;28.23;;;12.07;;
21095;SDS011;10706;49.036;12.112;2024-01-30T01:51:53;28.20;;;13.57;;
21095;SDS011;10706;49.036;12.112;2024-01-30T01:54:21;30.20;;;12.67;;
21095;SDS011;10706;49.036;12.112;2024-01-30T01:56:49;32.27;;;13.20;;
21095;SDS011;10706;49.036;12.112;2024-01-30T01:59:16;29.67;;;12.17;;
21095;SDS011;10706;49.036;12.112;2024-01-30T02:01:43;31.00;;;12.47;;
21095;SDS011;10706;49.036;12.112;2024-01-30T02:04:10;26.53;;;11.97;;
21095;SDS011;10706;49.036;12.112;2024-01-30T02:06:36;29.67;;;12.30;;
21095;SDS011;10706;49.036;12.112;2024-01-30T02:09:03;23.60;;;11.93;;
21095;SDS011;10706;49.036;12.112;2024-01-30T02:11:29;25.23;;;11.47;;
21095;SDS011;10706;49.036;12.112;2024-01-30T02:13:55;25.60;;;11.33;;
21095;SDS011;10706;49.036;12.112;2024-01-30T02:16:21;25.60;;;11.13;;
21095;SDS011;10706;49.036;12.112;2024-01-30T02:18:47;27.83;;;11.83;;
21095;SDS011;10706;49.036;12.112;2024-01-30T02:21:16;25.97;;;12.10;;
21095;SDS011;10706;49.036;12.112;2024-01-30T02:23:43;24.17;;;11.47;;
21095;SDS011;10706;49.036;12.112;2024-01-30T02:26:11;23.87;;;10.83;;
21095;SDS011;10706;49.036;12.112;2024-01-30T02:28:37;26.77;;;11.93;;
21095;SDS011;10706;49.036;12.112;2024-01-30T02:31:04;27.27;;;11.03;;
21095;SDS011;10706;49.036;12.112;2024-01-30T02:33:30;23.80;;;11.30;;
21095;SDS011;10706;49.036;12.112;2024-01-30T02:35:56;26.50;;;10.73;;
21095;SDS011;10706;49.036;12.112;2024-01-30T02:38:22;23.47;;;11.37;;
21095;SDS011;10706;49.036;12.112;2024-01-30T02:40:48;23.37;;;10.17;;
21095;SDS011;10706;49.036;12.112;2024-01-30T02:43:15;25.00;;;10.87;;
21095;SDS011;10706;49.036;12.112;2024-01-30T02:45:41;27.40;;;11.27;;
21095;SDS011;10706;49.036;12.112;2024-01-30T02:48:07;28.37;;;11.03;;
21095;SDS011;10706;49.036;12.112;2024-01-30T02:50:33;26.93;;;11.07;;
21095;SDS011;10706;49.036;12.112;2024-01-30T02:52:59;26.87;;;10.70;;
21095;SDS011;10706;49.036;12.112;2024-01-30T02:55:25;24.73;;;10.47;;
21095;SDS011;10706;49.036;12.112;2024-01-30T02:57:51;21.33;;;9.80;;
21095;SDS011;10706;49.036;12.112;2024-01-30T03:00:17;20.43;;;8.57;;
21095;SDS011;10706;49.036;12.112;2024-01-30T03:02:45;23.73;;;9.13;;
21095;SDS011;10706;49.036;12.112;2024-01-30T03:05:10;23.43;;;9.30;;
21095;SDS011;10706;49.036;12.112;2024-01-30T03:07:36;23.10;;;10.17;;
21095;SDS011;10706;49.036;12.112;2024-01-30T03:10:02;21.63;;;9.30;;
21095;SDS011;10706;49.036;12.112;2024-01-30T03:12:30;23.00;;;9.87;;
21095;SDS011;10706;49.036;12.112;2024-01-30T03:14:57;22.53;;;9.37;;
21095;SDS011;10706;49.036;12.112;2024-01-30T03:17:23;25.10;;;10.10;;
21095;SDS011;10706;49.036;12.112;2024-01-30T03:19:49;22.70;;;8.57;;
21095;SDS011;10706;49.036;12.112;2024-01-30T03:22:15;25.67;;;10.47;;
21095;SDS011;10706;49.036;12.112;2024-01-30T03:24:41;24.13;;;9.13;;
21095;SDS011;10706;49.036;12.112;2024-01-30T03:27:06;21.50;;;9.90;;
21095;SDS011;10706;49.036;12.112;2024-01-30T03:29:33;22.03;;;10.27;;
21095;SDS011;10706;49.036;12.112;2024-01-30T03:31:59;26.80;;;10.70;;
21095;SDS011;10706;49.036;12.112;2024-01-30T03:34:24;23.67;;;10.23;;
21095;SDS011;10706;49.036;12.112;2024-01-30T03:36:50;22.97;;;9.90;;
21095;SDS011;10706;49.036;12.112;2024-01-30T03:39:16;25.33;;;10.60;;
21095;SDS011;10706;49.036;12.112;2024-01-30T03:41:42;22.33;;;9.43;;
21095;SDS011;10706;49.036;12.112;2024-01-30T03:44:09;26.83;;;10.30;;
21095;SDS011;10706;49.036;12.112;2024-01-30T03:46:35;26.40;;;10.10;;
21095;SDS011;10706;49.036;12.112;2024-01-30T03:49:01;26.03;;;10.17;;
21095;SDS011;10706;49.036;12.112;2024-01-30T03:51:27;26.90;;;9.40;;
21095;SDS011;10706;49.036;12.112;2024-01-30T03:53:53;25.60;;;10.40;;
21095;SDS011;10706;49.036;12.112;2024-01-30T03:56:19;25.27;;;9.77;;
21095;SDS011;10706;49.036;12.112;2024-01-30T03:58:44;22.47;;;9.83;;
21095;SDS011;10706;49.036;12.112;2024-01-30T04:01:13;23.50;;;9.63;;
21095;SDS011;10706;49.036;12.112;2024-01-30T04:03:40;25.27;;;9.80;;
21095;SDS011;10706;49.036;12.112;2024-01-30T04:06:06;25.37;;;10.93;;
21095;SDS011;10706;49.036;12.112;2024-01-30T04:08:33;23.37;;;10.30;;
21095;SDS011;10706;49.036;12.112;2024-01-30T04:11:02;24.83;;;10.30;;
21095;SDS011;10706;49.036;12.112;2024-01-30T04:13:32;23.93;;;9.80;;
21095;SDS011;10706;49.036;12.112;2024-01-30T04:15:59;21.53;;;10.27;;
21095;SDS011;10706;49.036;12.112;2024-01-30T04:18:28;22.90;;;9.80;;
21095;SDS011;10706;49.036;12.112;2024-01-30T04:20:54;24.47;;;10.47;;
21095;SDS011;10706;49.036;12.112;2024-01-30T04:23:20;24.83;;;10.40;;
21095;SDS011;10706;49.036;12.112;2024-01-30T04:25:46;26.63;;;10.50;;
21095;SDS011;10706;49.036;12.112;2024-01-30T04:28:12;26.03;;;12.13;;
21095;SDS011;10706;49.036;12.112;2024-01-30T04:30:38;27.67;;;12.63;;
21095;SDS011;10706;49.036;12.112;2024-01-30T04:33:04;32.80;;;14.97;;
21095;SDS011;10706;49.036;12.112;2024-01-30T04:35:30;29.10;;;13.47;;
21095;SDS011;10706;49.036;12.112;2024-01-30T04:37:55;20.07;;;10.23;;
21095;SDS011;10706;49.036;12.112;2024-01-30T04:40:21;34.30;;;13.77;;
21095;SDS011;10706;49.036;12.112;2024-01-30T04:42:47;25.53;;;12.23;;
21095;SDS011;10706;49.036;12.112;2024-01-30T04:45:13;23.47;;;11.20;;
21095;SDS011;10706;49.036;12.112;2024-01-30T04:47:39;24.27;;;10.90;;
21095;SDS011;10706;49.036;12.112;2024-01-30T04:50:06;27.10;;;11.13;;
21095;SDS011;10706;49.036;12.112;2024-01-30T04:52:33;23.97;;;12.03;;
21095;SDS011;10706;49.036;12.112;2024-01-30T04:54:59;26.90;;;10.93;;
21095;SDS011;10706;49.036;12.112;2024-01-30T04:57:25;24.93;;;10.63;;
21095;SDS011;10706;49.036;12.112;2024-01-30T04:59:51;25.47;;;10.43;;
21095;SDS011;10706;49.036;12.112;2024-01-30T05:02:17;24.47;;;9.63;;
21095;SDS011;10706;49.036;12.112;2024-01-30T05:04:42;27.93;;;11.10;;
21095;SDS011;10706;49.036;12.112;2024-01-30T05:07:08;26.40;;;10.93;;
21095;SDS011;10706;49.036;12.112;2024-01-30T05:09:34;25.73;;;11.10;;
21095;SDS011;10706;49.036;12.112;2024-01-30T05:11:59;26.93;;;10.70;;
21095;SDS011;10706;49.036;12.112;2024-01-30T05:14:25;26.17;;;10.67;;
21095;SDS011;10706;49.036;12.112;2024-01-30T05:16:51;22.73;;;10.00;;
21095;SDS011;10706;49.036;12.112;2024-01-30T05:19:17;22.90;;;10.23;;
21095;SDS011;10706;49.036;12.112;2024-01-30T05:21:42;27.80;;;11.37;;
21095;SDS011;10706;49.036;12.112;2024-01-30T05:24:08;20.17;;;9.10;;
21095;SDS011;10706;49.036;12.112;2024-01-30T05:26:35;21.57;;;10.47;;
21095;SDS011;10706;49.036;12.112;2024-01-30T05:29:01;25.87;;;10.00;;
21095;SDS011;10706;49.036;12.112;2024-01-30T05:31:27;21.33;;;9.50;;
21095;SDS011;10706;49.036;12.112;2024-01-30T05:33:53;23.80;;;10.87;;
21095;SDS011;10706;49.036;12.112;2024-01-30T05:36:19;23.03;;;10.37;;
21095;SDS011;10706;49.036;12.112;2024-01-30T05:38:46;22.40;;;9.27;;
21095;SDS011;10706;49.036;12.112;2024-01-30T05:41:12;24.03;;;11.37;;
21095;SDS011;10706;49.036;12.112;2024-01-30T05:43:38;19.80;;;9.47;;
21095;SDS011;10706;49.036;12.112;2024-01-30T05:46:03;25.27;;;10.47;;
21095;SDS011;10706;49.036;12.112;2024-01-30T05:48:29;26.50;;;10.67;;
21095;SDS011;10706;49.036;12.112;2024-01-30T05:50:55;24.93;;;11.10;;
21095;SDS011;10706;49.036;12.112;2024-01-30T05:53:21;24.07;;;10.33;;
21095;SDS011;10706;49.036;12.112;2024-01-30T05:55:47;26.10;;;10.23;;
21095;SDS011;10706;49.036;12.112;2024-01-30T05:58:13;27.33;;;10.60;;
21095;SDS011;10706;49.036;12.112;2024-01-30T06:00:39;22.23;;;10.67;;
21095;SDS011;10706;49.036;12.112;2024-01-30T06:03:04;30.90;;;12.33;;
21095;SDS011;10706;49.036;12.112;2024-01-30T06:05:30;25.63;;;11.57;;
21095;SDS011;10706;49.036;12.112;2024-01-30T06:07:56;29.43;;;11.30;;
21095;SDS011;10706;49.036;12.112;2024-01-30T06:10:21;26.83;;;11.37;;
21095;SDS011;10706;49.036;12.112;2024-01-30T06:12:47;27.03;;;11.70;;
21095;SDS011;10706;49.036;12.112;2024-01-30T06:15:13;32.40;;;11.77;;
21095;SDS011;10706;49.036;12.112;2024-01-30T06:17:39;30.27;;;12.30;;
21095;SDS011;10706;49.036;12.112;2024-01-30T06:20:05;31.10;;;13.20;;
21095;SDS011;10706;49.036;12.112;2024-01-30T06:22:31;27.67;;;12.53;;
21095;SDS011;10706;49.036;12.112;2024-01-30T06:24:57;34.10;;;13.37;;
21095;SDS011;10706;49.036;12.112;2024-01-30T06:27:23;33.93;;;15.37;;
21095;SDS011;10706;49.036;12.112;2024-01-30T06:29:49;35.47;;;15.80;;
21095;SDS011;10706;49.036;12.112;2024-01-30T06:32:15;36.40;;;15.27;;
21095;SDS011;10706;49.036;12.112;2024-01-30T06:34:41;33.87;;;14.60;;
21095;SDS011;10706;49.036;12.112;2024-01-30T06:37:09;31.27;;;13.23;;
21095;SDS011;10706;49.036;12.112;2024-01-30T06:39:37;35.67;;;14.83;;
21095;SDS011;10706;49.036;12.112;2024-01-30T06:42:04;33.83;;;14.80;;
21095;SDS011;10706;49.036;12.112;2024-01-30T06:44:30;36.93;;;15.80;;
21095;SDS011;10706;49.036;12.112;2024-01-30T06:46:55;39.43;;;17.37;;
21095;SDS011;10706;49.036;12.112;2024-01-30T06:49:21;42.97;;;18.40;;
21095;SDS011;10706;49.036;12.112;2024-01-30T06:51:47;40.87;;;17.63;;
21095;SDS011;10706;49.036;12.112;2024-01-30T06:54:13;44.00;;;18.63;;
21095;SDS011;10706;49.036;12.112;2024-01-30T06:56:39;43.10;;;17.93;;
21095;SDS011;10706;49.036;12.112;2024-01-30T06:59:05;39.37;;;17.33;;
21095;SDS011;10706;49.036;12.112;2024-01-30T07:01:31;38.60;;;18.03;;
21095;SDS011;10706;49.036;12.112;2024-01-30T07:03:57;47.80;;;17.87;;
21095;SDS011;10706;49.036;12.112;2024-01-30T07:06:23;43.37;;;18.40;;
21095;SDS011;10706;49.036;12.112;2024-01-30T07:08:49;36.43;;;17.77;;
21095;SDS011;10706;49.036;12.112;2024-01-30T07:11:19;46.97;;;17.97;;
21095;SDS011;10706;49.036;12.112;2024-01-30T07:13:48;39.13;;;16.47;;
21095;SDS011;10706;49.036;12.112;2024-01-30T07:16:16;39.50;;;18.90;;
21095;SDS011;10706;49.036;12.112;2024-01-30T07:18:43;36.97;;;17.43;;
21095;SDS011;10706;49.036;12.112;2024-01-30T07:21:09;36.70;;;16.00;;
21095;SDS011;10706;49.036;12.112;2024-01-30T07:23:35;40.73;;;17.60;;
21095;SDS011;10706;49.036;12.112;2024-01-30T07:26:03;40.40;;;18.57;;
21095;SDS011;10706;49.036;12.112;2024-01-30T07:28:31;42.33;;;17.73;;
21095;SDS011;10706;49.036;12.112;2024-01-30T07:30:58;37.30;;;17.27;;
21095;SDS011;10706;49.036;12.112;2024-01-30T07:33:23;36.20;;;16.63;;
21095;SDS011;10706;49.036;12.112;2024-01-30T07:35:49;40.43;;;17.03;;
21095;SDS011;10706;49.036;12.112;2024-01-30T07:38:19;40.23;;;17.10;;
21095;SDS011;10706;49.036;12.112;2024-01-30T07:40:45;37.43;;;17.23;;
21095;SDS011;10706;49.036;12.112;2024-01-30T07:43:12;35.87;;;17.10;;
21095;SDS011;10706;49.036;12.112;2024-01-30T07:45:37;32.73;;;15.87;;
21095;SDS011;10706;49.036;12.112;2024-01-30T07:48:05;36.00;;;18.90;;
21095;SDS011;10706;49.036;12.112;2024-01-30T07:50:31;35.73;;;17.47;;
21095;SDS011;10706;49.036;12.112;2024-01-30T07:52:58;35.37;;;16.83;;
21095;SDS011;10706;49.036;12.112;2024-01-30T07:55:25;39.03;;;17.57;;
21095;SDS011;10706;49.036;12.112;2024-01-30T07:57:53;38.77;;;16.33;;
21095;SDS011;10706;49.036;12.112;2024-01-30T08:00:21;42.73;;;18.80;;
21095;SDS011;10706;49.036;12.112;2024-01-30T08:02:47;38.57;;;18.57;;
21095;SDS011;10706;49.036;12.112;2024-01-30T08:05:13;38.87;;;18.97;;
21095;SDS011;10706;49.036;12.112;2024-01-30T08:07:40;30.83;;;15.37;;
21095;SDS011;10706;49.036;12.112;2024-01-30T08:10:07;36.37;;;17.30;;
21095;SDS011;10706;49.036;12.112;2024-01-30T08:12:34;39.00;;;17.67;;
21095;SDS011;10706;49.036;12.112;2024-01-30T08:14:59;36.73;;;17.07;;
21095;SDS011;10706;49.036;12.112;2024-01-30T08:17:25;40.40;;;17.50;;
21095;SDS011;10706;49.036;12.112;2024-01-30T08:19:51;34.97;;;16.23;;
21095;SDS011;10706;49.036;12.112;2024-01-30T08:22:16;35.47;;;16.73;;
21095;SDS011;10706;49.036;12.112;2024-01-30T08:24:42;29.87;;;16.10;;
21095;SDS011;10706;49.036;12.112;2024-01-30T08:27:08;38.33;;;16.70;;
21095;SDS011;10706;49.036;12.112;2024-01-30T08:29:37;32.53;;;15.67;;
21095;SDS011;10706;49.036;12.112;2024-01-30T08:32:04;39.97;;;18.03;;
21095;SDS011;10706;49.036;12.112;2024-01-30T08:34:31;38.03;;;16.33;;
21095;SDS011;10706;49.036;12.112;2024-01-30T08:36:57;35.40;;;16.77;;
21095;SDS011;10706;49.036;12.112;2024-01-30T08:39:23;32.83;;;16.33;;
21095;SDS011;10706;49.036;12.112;2024-01-30T08:41:48;31.73;;;16.83;;
21095;SDS011;10706;49.036;12.112;2024-01-30T08:44:14;38.80;;;16.10;;
21095;SDS011;10706;49.036;12.112;2024-01-30T08:46:40;32.33;;;15.20;;
21095;SDS011;10706;49.036;12.112;2024-01-30T08:49:06;35.80;;;16.33;;
21095;SDS011;10706;49.036;12.112;2024-01-30T08:51:31;36.30;;;16.10;;
21095;SDS011;10706;49.036;12.112;2024-01-30T08:53:57;33.20;;;15.80;;
21095;SDS011;10706;49.036;12.112;2024-01-30T08:56:23;32.77;;;15.83;;
21095;SDS011;10706;49.036;12.112;2024-01-30T08:58:48;31.67;;;15.53;;
21095;SDS011;10706;49.036;12.112;2024-01-30T09:01:14;31.17;;;14.93;;
21095;SDS011;10706;49.036;12.112;2024-01-30T09:03:40;34.53;;;15.53;;
21095;SDS011;10706;49.036;12.112;2024-01-30T09:06:08;33.33;;;15.40;;
21095;SDS011;10706;49.036;12.112;2024-01-30T09:08:35;35.10;;;16.50;;
21095;SDS011;10706;49.036;12.112;2024-01-30T09:11:01;32.33;;;16.80;;
21095;SDS011;10706;49.036;12.112;2024-01-30T09:13:37;33.93;;;15.60;;
21095;SDS011;10706;49.036;12.112;2024-01-30T09:16:03;35.97;;;16.43;;
21095;SDS011;10706;49.036;12.112;2024-01-30T09:18:30;35.33;;;15.50;;
21095;SDS011;10706;49.036;12.112;2024-01-30T09:20:56;33.13;;;16.37;;
21095;SDS011;10706;49.036;12.112;2024-01-30T09:23:21;35.47;;;14.97;;
21095;SDS011;10706;49.036;12.112;2024-01-30T09:25:47;32.10;;;15.43;;
21095;SDS011;10706;49.036;12.112;2024-01-30T09:28:13;32.50;;;16.20;;
21095;SDS011;10706;49.036;12.112;2024-01-30T09:30:39;30.63;;;16.10;;
21095;SDS011;10706;49.036;12.112;2024-01-30T09:33:06;36.07;;;15.80;;
21095;SDS011;10706;49.036;12.112;2024-01-30T09:35:32;32.23;;;15.73;;
21095;SDS011;10706;49.036;12.112;2024-01-30T09:37:58;34.53;;;16.33;;
21095;SDS011;10706;49.036;12.112;2024-01-30T09:40:24;34.17;;;16.60;;
21095;SDS011;10706;49.036;12.112;2024-01-30T09:42:50;34.43;;;15.40;;
21095;SDS011;10706;49.036;12.112;2024-01-30T09:45:20;32.37;;;16.23;;
21095;SDS011;10706;49.036;12.112;2024-01-30T09:47:50;30.57;;;15.53;;
21095;SDS011;10706;49.036;12.112;2024-01-30T09:50:18;34.40;;;15.73;;
21095;SDS011;10706;49.036;12.112;2024-01-30T09:52:45;29.77;;;15.53;;
21095;SDS011;10706;49.036;12.112;2024-01-30T09:55:12;37.60;;;17.20;;
21095;SDS011;10706;49.036;12.112;2024-01-30T09:57:39;30.07;;;14.17;;
21095;SDS011;10706;49.036;12.112;2024-01-30T10:00:07;34.90;;;15.87;;
21095;SDS011;10706;49.036;12.112;2024-01-30T10:02:34;29.70;;;15.53;;
21095;SDS011;10706;49.036;12.112;2024-01-30T10:05:01;32.27;;;15.87;;
21095;SDS011;10706;49.036;12.112;2024-01-30T10:07:27;34.53;;;16.13;;
21095;SDS011;10706;49.036;12.112;2024-01-30T10:09:53;36.30;;;16.53;;
21095;SDS011;10706;49.036;12.112;2024-01-30T10:12:21;31.03;;;16.03;;
21095;SDS011;10706;49.036;12.112;2024-01-30T10:14:47;31.63;;;15.63;;
21095;SDS011;10706;49.036;12.112;2024-01-30T10:17:13;29.30;;;16.87;;
21095;SDS011;10706;49.036;12.112;2024-01-30T10:19:40;31.87;;;15.43;;
21095;SDS011;10706;49.036;12.112;2024-01-30T10:22:06;37.47;;;16.70;;
21095;SDS011;10706;49.036;12.112;2024-01-30T10:24:33;32.90;;;15.70;;
21095;SDS011;10706;49.036;12.112;2024-01-30T10:26:59;33.63;;;16.80;;
21095;SDS011;10706;49.036;12.112;2024-01-30T10:29:26;37.07;;;16.17;;
21095;SDS011;10706;49.036;12.112;2024-01-30T10:31:59;33.97;;;15.73;;
21095;SDS011;10706;49.036;12.112;2024-01-30T10:34:31;34.63;;;16.40;;
21095;SDS011;10706;49.036;12.112;2024-01-30T10:37:07;30.43;;;15.47;;
21095;SDS011;10706;49.036;12.112;2024-01-30T10:39:40;33.40;;;16.60;;
21095;SDS011;10706;49.036;12.112;2024-01-30T10:42:11;41.83;;;18.03;;
21095;SDS011;10706;49.036;12.112;2024-01-30T10:47:24;32.93;;;16.03;;
21095;SDS011;10706;49.036;12.112;2024-01-30T10:49:54;32.13;;;16.60;;
21095;SDS011;10706;49.036;12.112;2024-01-30T10:52:22;33.17;;;17.07;;
21095;SDS011;10706;49.036;12.112;2024-01-30T10:54:53;31.43;;;15.20;;
21095;SDS011;10706;49.036;12.112;2024-01-30T10:57:19;35.53;;;16.90;;
21095;SDS011;10706;49.036;12.112;2024-01-30T10:59:52;30.67;;;14.57;;
21095;SDS011;10706;49.036;12.112;2024-01-30T11:02:22;32.43;;;16.63;;
21095;SDS011;10706;49.036;12.112;2024-01-30T11:04:49;31.20;;;16.50;;
21095;SDS011;10706;49.036;12.112;2024-01-30T11:07:23;33.40;;;17.00;;
21095;SDS011;10706;49.036;12.112;2024-01-30T11:12:26;34.20;;;15.80;;
21095;SDS011;10706;49.036;12.112;2024-01-30T11:20:16;34.40;;;16.00;;
21095;SDS011;10706;49.036;12.112;2024-01-30T11:22:53;32.33;;;16.53;;
21095;SDS011;10706;49.036;12.112;2024-01-30T11:25:21;32.17;;;16.17;;
21095;SDS011;10706;49.036;12.112;2024-01-30T11:27:52;30.17;;;15.73;;
21095;SDS011;10706;49.036;12.112;2024-01-30T11:30:28;30.27;;;15.83;;
21095;SDS011;10706;49.036;12.112;2024-01-30T11:35:34;31.83;;;15.93;;
21095;SDS011;10706;49.036;12.112;2024-01-30T11:38:02;32.53;;;16.00;;
21095;SDS011;10706;49.036;12.112;2024-01-30T11:40:29;29.83;;;16.73;;
21095;SDS011;10706;49.036;12.112;2024-01-30T11:42:56;32.97;;;16.13;;
21095;SDS011;10706;49.036;12.112;2024-01-30T11:45:25;30.77;;;15.43;;
21095;SDS011;10706;49.036;12.112;2024-01-30T11:47:52;31.73;;;14.63;;
21095;SDS011;10706;49.036;12.112;2024-01-30T11:50:19;30.37;;;15.40;;
21095;SDS011;10706;49.036;12.112;2024-01-30T11:52:45;27.97;;;14.97;;
21095;SDS011;10706;49.036;12.112;2024-01-30T11:55:11;31.33;;;15.70;;
21095;SDS011;10706;49.036;12.112;2024-01-30T11:57:38;30.27;;;15.87;;
21095;SDS011;10706;49.036;12.112;2024-01-30T12:00:04;38.17;;;15.43;;
21095;SDS011;10706;49.036;12.112;2024-01-30T12:02:38;35.13;;;16.60;;
21095;SDS011;10706;49.036;12.112;2024-01-30T12:05:05;29.80;;;15.40;;
21095;SDS011;10706;49.036;12.112;2024-01-30T12:07:32;32.37;;;15.90;;
21095;SDS011;10706;49.036;12.112;2024-01-30T12:09:58;28.83;;;14.90;;
21095;SDS011;10706;49.036;12.112;2024-01-30T12:12:25;32.53;;;16.10;;
21095;SDS011;10706;49.036;12.112;2024-01-30T12:14:52;31.00;;;14.27;;
21095;SDS011;10706;49.036;12.112;2024-01-30T12:17:31;35.63;;;15.33;;
21095;SDS011;10706;49.036;12.112;2024-01-30T12:20:13;32.27;;;15.37;;
21095;SDS011;10706;49.036;12.112;2024-01-30T12:22:48;31.60;;;16.23;;
21095;SDS011;10706;49.036;12.112;2024-01-30T12:25:15;36.27;;;17.77;;
21095;SDS011;10706;49.036;12.112;2024-01-30T12:27:44;33.27;;;16.37;;
21095;SDS011;10706;49.036;12.112;2024-01-30T12:30:15;38.67;;;15.77;;
21095;SDS011;10706;49.036;12.112;2024-01-30T12:32:43;35.13;;;16.37;;
21095;SDS011;10706;49.036;12.112;2024-01-30T12:35:13;31.83;;;15.37;;
21095;SDS011;10706;49.036;12.112;2024-01-30T12:37:45;30.67;;;16.60;;
21095;SDS011;10706;49.036;12.112;2024-01-30T12:40:13;32.27;;;16.20;;
21095;SDS011;10706;49.036;12.112;2024-01-30T12:42:46;30.83;;;14.57;;
21095;SDS011;10706;49.036;12.112;2024-01-30T12:45:15;29.73;;;14.87;;
21095;SDS011;10706;49.036;12.112;2024-01-30T12:47:41;27.03;;;13.77;;
21095;SDS011;10706;49.036;12.112;2024-01-30T12:50:07;32.40;;;15.37;;
21095;SDS011;10706;49.036;12.112;2024-01-30T12:52:33;30.23;;;14.93;;
21095;SDS011;10706;49.036;12.112;2024-01-30T12:55:00;31.53;;;14.63;;
21095;SDS011;10706;49.036;12.112;2024-01-30T12:57:26;26.47;;;14.80;;
21095;SDS011;10706;49.036;12.112;2024-01-30T12:59:52;30.17;;;15.47;;
21095;SDS011;10706;49.036;12.112;2024-01-30T13:02:17;25.67;;;13.67;;
21095;SDS011;10706;49.036;12.112;2024-01-30T13:04:43;34.17;;;14.93;;
21095;SDS011;10706;49.036;12.112;2024-01-30T13:07:09;28.90;;;14.93;;
21095;SDS011;10706;49.036;12.112;2024-01-30T13:09:35;28.20;;;14.23;;
21095;SDS011;10706;49.036;12.112;2024-01-30T13:12:01;27.80;;;14.63;;
21095;SDS011;10706;49.036;12.112;2024-01-30T13:14:27;30.40;;;15.50;;
21095;SDS011;10706;49.036;12.112;2024-01-30T13:16:53;31.73;;;15.47;;
21095;SDS011;10706;49.036;12.112;2024-01-30T13:19:18;29.33;;;15.10;;
21095;SDS011;10706;49.036;12.112;2024-01-30T13:21:44;28.20;;;14.43;;
21095;SDS011;10706;49.036;12.112;2024-01-30T13:24:10;28.90;;;13.57;;
21095;SDS011;10706;49.036;12.112;2024-01-30T13:26:36;28.10;;;14.70;;
21095;SDS011;10706;49.036;12.112;2024-01-30T13:29:02;27.73;;;14.50;;
21095;SDS011;10706;49.036;12.112;2024-01-30T13:31:30;26.97;;;14.10;;
21095;SDS011;10706;49.036;12.112;2024-01-30T13:33:59;27.67;;;14.13;;
21095;SDS011;10706;49.036;12.112;2024-01-30T13:36:25;28.53;;;14.53;;
21095;SDS011;10706;49.036;12.112;2024-01-30T13:38:51;29.37;;;14.07;;
21095;SDS011;10706;49.036;12.112;2024-01-30T13:41:17;29.60;;;14.97;;
21095;SDS011;10706;49.036;12.112;2024-01-30T13:43:45;28.60;;;14.97;;
21095;SDS011;10706;49.036;12.112;2024-01-30T13:46:11;26.97;;;13.60;;
21095;SDS011;10706;49.036;12.112;2024-01-30T13:48:37;31.43;;;14.63;;
21095;SDS011;10706;49.036;12.112;2024-01-30T13:51:03;29.97;;;15.47;;
21095;SDS011;10706;49.036;12.112;2024-01-30T13:53:29;31.70;;;15.23;;
21095;SDS011;10706;49.036;12.112;2024-01-30T13:55:54;28.97;;;13.57;;
21095;SDS011;10706;49.036;12.112;2024-01-30T13:58:20;28.80;;;15.20;;
21095;SDS011;10706;49.036;12.112;2024-01-30T14:00:46;28.87;;;14.67;;
21095;SDS011;10706;49.036;12.112;2024-01-30T14:03:12;30.93;;;15.23;;
21095;SDS011;10706;49.036;12.112;2024-01-30T14:05:37;29.47;;;15.13;;
21095;SDS011;10706;49.036;12.112;2024-01-30T14:08:03;25.53;;;14.83;;
21095;SDS011;10706;49.036;12.112;2024-01-30T14:10:30;27.27;;;15.10;;
21095;SDS011;10706;49.036;12.112;2024-01-30T14:12:56;32.00;;;15.07;;
21095;SDS011;10706;49.036;12.112;2024-01-30T14:15:22;29.63;;;15.77;;
21095;SDS011;10706;49.036;12.112;2024-01-30T14:17:47;30.10;;;14.57;;
21095;SDS011;10706;49.036;12.112;2024-01-30T14:20:14;30.77;;;15.10;;